Time;durP1;ratioP1;P1;durP2;ratioP2;P2;SDS_P1;SDS_P2;PMS_P1;PMS_P2;Temp;Humidity;BMP_temperature;BMP_pressure;BME280_temperature;BME280_humidity;BME280_pressure;Samples;Min_cycle;Max_cycle;Signal;HPM_P1;HPM_P2
2023/04/15 00:01:35;;;;;;;198.23;182.37;;;3.40;21.80;;;;;;5013558;28;20670;-74
2023/04/15 00:04:01;;;;;;;127.07;116.03;;;3.40;22.20;;;;;;5013828;28;20220;-73
2023/04/15 00:06:26;;;;;;;90.30;78.17;;;3.30;22.30;;;;;;5013883;28;20177;-71
2023/04/15 00:08:52;;;;;;;123.87;112.40;;;3.30;22.20;;;;;;5013950;28;20542;-71
2023/04/15 00:11:18;;;;;;;116.87;106.43;;;3.30;22.30;;;;;;5013673;28;20675;-71
2023/04/15 00:13:44;;;;;;;125.82;115.18;;;3.30;22.60;;;;;;5013485;28;20226;-71
2023/04/15 00:16:10;;;;;;;198.23;182.93;;;3.20;23.10;;;;;;5013807;28;20179;-71
2023/04/15 00:18:37;;;;;;;157.77;145.23;;;3.20;23.20;;;;;;5013857;28;20418;-72
2023/04/15 00:21:03;;;;;;;109.53;98.93;;;3.20;23.20;;;;;;5013489;28;20176;-71
2023/04/15 00:23:29;;;;;;;110.82;100.18;;;3.10;23.60;;;;;;5013325;28;20198;-72
2023/04/15 00:25:55;;;;;;;157.87;145.60;;;3.10;23.60;;;;;;5013510;28;20181;-72
2023/04/15 00:28:21;;;;;;;174.57;161.80;;;3.10;23.40;;;;;;5013323;28;20439;-71
2023/04/15 00:30:46;;;;;;;147.67;135.70;;;3.10;23.30;;;;;;5013131;28;20222;-71
2023/04/15 00:33:13;;;;;;;160.37;148.27;;;3.10;23.10;;;;;;5013034;28;20513;-71
2023/04/15 00:35:39;;;;;;;142.70;130.77;;;3.10;23.10;;;;;;5013465;28;20200;-71
2023/04/15 00:38:08;;;;;;;140.17;128.80;;;3.10;23.20;;;;;;5013288;28;20650;-71
2023/04/15 00:40:34;;;;;;;143.70;132.05;;;3.00;23.80;;;;;;5013204;28;20506;-73
2023/04/15 00:43:00;;;;;;;146.50;134.70;;;3.00;24.20;;;;;;5012674;28;20631;-71
2023/04/15 00:45:27;;;;;;;167.40;155.10;;;2.90;24.10;;;;;;5013161;28;20169;-70
2023/04/15 00:47:53;;;;;;;144.13;132.32;;;;;;;;;;5013101;28;20203;-72
2023/04/15 00:50:19;;;;;;;153.45;141.48;;;;;;;;;;5013381;28;20173;-72
2023/04/15 00:52:45;;;;;;;160.80;148.25;;;;;;;;;;5012578;28;20235;-72
2023/04/15 00:55:11;;;;;;;137.00;124.97;;;;;;;;;;5012986;28;20211;-71
2023/04/15 00:57:37;;;;;;;108.15;97.15;;;;;;;;;;5012757;28;20415;-71
2023/04/15 01:00:10;;;;;;;160.50;148.23;;;;;;;;;;5012867;28;20188;-73
2023/04/15 01:02:37;;;;;;;111.18;100.28;;;;;;;;;;5012510;28;20211;-69
2023/04/15 01:05:03;;;;;;;92.53;75.95;;;;;;;;;;5012847;28;20172;-70
2023/04/15 01:07:30;;;;;;;132.45;120.88;;;;;;;;;;5012688;28;20259;-70
2023/04/15 01:09:56;;;;;;;100.30;86.53;;;;;;;;;;5013061;28;20169;-69
2023/04/15 01:12:24;;;;;;;124.57;113.15;;;;;;;;;;5012955;28;20599;-70
2023/04/15 01:14:50;;;;;;;136.93;125.65;;;;;;;;;;5013121;28;20240;-69
2023/04/15 01:17:16;;;;;;;139.30;128.02;;;;;;;;;;5012646;28;20209;-70
2023/04/15 01:19:42;;;;;;;89.30;75.63;;;;;;;;;;5012510;28;20289;-70
2023/04/15 01:22:08;;;;;;;132.80;120.90;;;;;;;;;;5012059;28;20725;-69
2023/04/15 01:24:35;;;;;;;119.30;107.65;;;;;;;;;;5012451;28;20450;-70
2023/04/15 01:27:01;;;;;;;100.45;87.32;;;;;;;;;;5012380;28;20230;-70
2023/04/15 01:29:27;;;;;;;132.17;120.60;;;;;;;;;;5011066;28;20184;-69
2023/04/15 01:31:54;;;;;;;92.95;83.07;;;;;;;;;;5011950;28;20852;-70
2023/04/15 01:34:21;;;;;;;139.05;127.57;;;;;;;;;;5012349;28;20179;-70
2023/04/15 01:36:47;;;;;;;132.20;120.90;;;;;;;;;;5012384;28;20184;-70
2023/04/15 01:39:13;;;;;;;123.05;111.50;;;;;;;;;;5012178;28;20187;-70
2023/04/15 01:41:39;;;;;;;90.73;75.27;;;;;;;;;;5011661;28;20690;-70
2023/04/15 01:44:06;;;;;;;108.88;97.13;;;;;;;;;;5011582;28;20557;-70
2023/04/15 01:46:32;;;;;;;92.75;77.82;;;;;;;;;;5012244;28;20196;-70
2023/04/15 01:48:58;;;;;;;120.07;108.93;;;;;;;;;;5012140;28;20192;-69
2023/04/15 01:51:23;;;;;;;100.88;88.88;;;2.90;23.90;;;;;;5012019;28;20838;-70
2023/04/15 01:53:49;;;;;;;81.20;47.13;;;2.30;27.30;;;;;;5011934;28;20215;-70
2023/04/15 01:56:14;;;;;;;88.63;53.47;;;2.30;28.50;;;;;;5012105;28;20537;-70
2023/04/15 01:58:40;;;;;;;77.83;39.00;;;2.30;28.40;;;;;;5012124;28;20175;-71
2023/04/15 02:01:06;;;;;;;95.07;78.27;;;2.20;28.30;;;;;;5011934;28;20702;-71
2023/04/15 02:04:16;;;;;;;94.13;77.63;;;2.20;28.70;;;;;;5011622;28;20211;-70
2023/04/15 02:06:45;;;;;;;93.90;78.35;;;2.20;28.50;;;;;;5010850;28;20191;-70
2023/04/15 02:09:10;;;;;;;97.53;78.80;;;2.10;28.70;;;;;;5012017;28;20176;-71
2023/04/15 02:11:36;;;;;;;86.80;69.43;;;2.10;28.70;;;;;;5011684;28;20548;-70
2023/04/15 02:14:04;;;;;;;85.70;58.30;;;2.10;28.70;;;;;;5011997;28;20176;-70
2023/04/15 02:16:30;;;;;;;94.28;79.18;;;2.10;29.20;;;;;;5012050;28;20200;-70
2023/04/15 02:18:56;;;;;;;97.90;87.22;;;2.10;29.20;;;;;;5011890;28;20176;-69
2023/04/15 02:21:22;;;;;;;96.70;83.00;;;2.00;29.10;;;;;;5011674;28;20258;-74
2023/04/15 02:23:48;;;;;;;83.53;72.27;;;;;;;;;;5011786;28;20257;-69
2023/04/15 02:26:14;;;;;;;79.10;44.90;;;;;;;;;;5011782;28;20403;-70
2023/04/15 02:28:40;;;;;;;74.03;35.28;;;;;;;;;;5011897;28;20407;-69
2023/04/15 02:31:08;;;;;;;77.70;49.27;;;;;;;;;;5011557;28;20187;-69
2023/04/15 02:33:34;;;;;;;83.18;55.08;;;;;;;;;;5011532;28;20453;-70
2023/04/15 02:36:00;;;;;;;88.95;76.18;;;;;;;;;;5011702;28;20172;-69
2023/04/15 02:38:26;;;;;;;80.60;51.55;;;;;;;;;;5011912;28;20575;-69
2023/04/15 02:40:52;;;;;;;76.37;37.70;;;;;;;;;;5011751;28;20172;-70
2023/04/15 02:43:18;;;;;;;86.63;67.95;;;;;;;;;;5011201;28;20830;-69
2023/04/15 02:45:45;;;;;;;95.40;76.53;;;;;;;;;;5011639;28;20231;-69
2023/04/15 02:48:11;;;;;;;79.07;37.33;;;;;;;;;;5011555;28;20407;-69
2023/04/15 02:50:39;;;;;;;74.90;36.43;;;;;;;;;;5011583;28;20179;-69
2023/04/15 02:53:05;;;;;;;79.00;50.58;;;;;;;;;;5011193;28;20462;-69
2023/04/15 02:55:31;;;;;;;80.43;46.67;;;;;;;;;;5014674;28;20180;-69
2023/04/15 02:57:59;;;;;;;75.03;39.83;;;;;;;;;;5015026;28;20227;-69
2023/04/15 03:00:25;;;;;;;82.32;52.85;;;;;;;;;;5015190;28;20261;-69
2023/04/15 03:02:55;;;;;;;77.70;48.45;;;;;;;;;;5014857;28;20195;-69
2023/04/15 03:05:24;;;;;;;82.35;50.45;;;;;;;;;;5015697;28;20259;-69
2023/04/15 03:07:51;;;;;;;82.85;59.17;;;;;;;;;;5015634;28;20211;-71
2023/04/15 03:10:17;;;;;;;76.28;42.65;;;;;;;;;;5015051;28;20183;-69
2023/04/15 03:12:43;;;;;;;77.53;45.90;;;;;;;;;;5014504;28;20195;-70
2023/04/15 03:15:09;;;;;;;81.85;48.45;;;;;;;;;;5014834;28;20407;-69
2023/04/15 03:17:35;;;;;;;76.60;41.17;;;;;;;;;;5014972;28;20184;-69
2023/04/15 03:20:03;;;;;;;79.20;42.17;;;2.00;29.20;;;;;;5014751;28;20641;-69
2023/04/15 03:22:29;;;;;;;79.88;41.45;;;1.60;32.40;;;;;;5014250;28;20450;-69
2023/04/15 03:24:55;;;;;;;88.32;66.18;;;1.60;31.80;;;;;;5014660;28;20176;-70
2023/04/15 03:27:21;;;;;;;88.77;61.43;;;1.60;31.20;;;;;;5014667;28;20235;-69
2023/04/15 03:29:46;;;;;;;84.87;56.33;;;1.60;32.10;;;;;;5014399;28;20204;-70
2023/04/15 03:32:14;;;;;;;79.77;50.03;;;1.50;32.30;;;;;;5014062;28;20319;-69
2023/04/15 03:34:39;;;;;;;90.57;76.10;;;1.50;32.90;;;;;;5014462;28;20227;-69
2023/04/15 03:37:05;;;;;;;78.43;44.30;;;1.60;31.90;;;;;;5014413;28;20196;-70
2023/04/15 03:39:31;;;;;;;84.00;55.97;;;1.50;33.20;;;;;;5014410;28;20490;-71
2023/04/15 03:41:58;;;;;;;80.07;45.83;;;1.60;33.00;;;;;;5013957;28;20200;-70
2023/04/15 03:44:23;;;;;;;74.40;35.95;;;1.60;33.30;;;;;;5014169;28;20173;-70
2023/04/15 03:46:49;;;;;;;75.47;40.93;;;1.60;32.90;;;;;;5014202;28;20194;-72
2023/04/15 03:49:15;;;;;;;74.13;39.33;;;1.60;33.10;;;;;;5014158;28;20183;-70
2023/04/15 03:51:40;;;;;;;75.83;32.77;;;1.60;32.90;;;;;;5013761;28;20188;-70
2023/04/15 03:54:06;;;;;;;75.87;45.23;;;1.60;32.60;;;;;;5013946;28;20939;-69
2023/04/15 03:56:31;;;;;;;72.73;36.93;;;1.60;32.10;;;;;;5014030;28;20172;-70
2023/04/15 03:58:57;;;;;;;85.17;61.47;;;1.60;31.80;;;;;;5014001;28;20176;-70
2023/04/15 04:01:22;;;;;;;74.87;46.67;;;1.60;31.30;;;;;;5012464;28;20227;-70
2023/04/15 04:03:48;;;;;;;75.00;44.53;;;;;;;;;;5013803;28;20207;-70
2023/04/15 04:06:15;;;;;;;79.13;53.27;;;;;;;;;;5013092;28;20179;-71
2023/04/15 04:08:41;;;;;;;75.82;39.58;;;;;;;;;;5013811;28;20399;-70
2023/04/15 04:11:07;;;;;;;76.00;32.43;;;;;;;;;;5013683;28;20315;-70
2023/04/15 04:13:33;;;;;;;73.33;39.77;;;;;;;;;;5013279;28;20415;-70
2023/04/15 04:15:59;;;;;;;72.63;34.67;;;;;;;;;;5013609;28;20405;-70
2023/04/15 04:18:25;;;;;;;77.30;41.63;;;;;;;;;;5013607;28;20415;-70
2023/04/15 04:20:51;;;;;;;88.03;76.23;;;;;;;;;;5013619;28;20231;-70
2023/04/15 04:23:17;;;;;;;76.80;49.43;;;;;;;;;;5013024;28;20476;-70
2023/04/15 04:25:43;;;;;;;78.43;54.20;;;;;;;;;;5012173;28;20511;-70
2023/04/15 04:28:10;;;;;;;92.70;77.13;;;;;;;;;;5013454;28;20941;-71
2023/04/15 04:30:36;;;;;;;74.22;38.50;;;;;;;;;;5013270;28;20435;-70
2023/04/15 04:33:02;;;;;;;78.82;45.17;;;;;;;;;;5042551;22;20235;-67
2023/04/15 04:35:28;;;;;;;82.17;47.33;;;;;;;;;;5022393;28;20176;-68
2023/04/15 04:37:55;;;;;;;81.73;46.73;;;;;;;;;;5021706;28;20418;-69
2023/04/15 04:40:21;;;;;;;69.03;30.23;;;;;;;;;;5022540;28;20474;-69
2023/04/15 04:42:47;;;;;;;74.38;38.40;;;;;;;;;;5020688;28;20215;-69
2023/04/15 04:45:13;;;;;;;88.07;64.77;;;;;;;;;;5022164;28;20238;-68
2023/04/15 04:47:39;;;;;;;77.28;44.72;;;1.60;31.80;;;;;;5022196;28;20428;-68
2023/04/15 04:50:05;;;;;;;71.10;30.90;;;1.30;35.50;;;;;;5022995;28;20258;-67
2023/04/15 04:52:31;;;;;;;72.40;36.92;;;1.30;35.00;;;;;;5022061;28;20199;-68
2023/04/15 04:54:56;;;;;;;82.43;52.03;;;1.40;35.10;;;;;;5028343;28;20658;-67
2023/04/15 04:57:22;;;;;;;72.37;35.60;;;1.40;34.20;;;;;;5022225;28;20195;-67
2023/04/15 04:59:48;;;;;;;73.57;38.40;;;1.40;34.80;;;;;;5020550;28;20664;-69
2023/04/15 05:02:13;;;;;;;72.87;33.67;;;1.40;33.40;;;;;;5019763;28;20533;-68
2023/04/15 05:04:40;;;;;;;83.47;53.33;;;1.50;33.70;;;;;;5021584;28;20240;-68
2023/04/15 05:07:06;;;;;;;83.32;57.15;;;1.50;33.00;;;;;;5022277;28;20196;-69
2023/04/15 05:09:34;;;;;;;72.80;35.20;;;1.60;32.50;;;;;;5022176;28;20183;-69
2023/04/15 05:12:00;;;;;;;92.50;71.72;;;1.60;32.70;;;;;;5021044;28;20282;-69
2023/04/15 05:14:26;;;;;;;87.90;58.60;;;1.70;32.20;;;;;;5020791;28;20257;-69
2023/04/15 05:16:51;;;;;;;85.27;54.13;;;1.70;31.90;;;;;;5021217;28;20184;-69
2023/04/15 05:19:17;;;;;;;82.70;49.83;;;1.70;31.60;;;;;;5022357;28;20184;-69
2023/04/15 05:21:43;;;;;;;83.90;56.13;;;1.80;30.80;;;;;;5022191;28;20184;-68
2023/04/15 05:24:08;;;;;;;83.37;52.57;;;1.80;30.30;;;;;;5023228;28;20187;-68
2023/04/15 05:26:34;;;;;;;76.23;44.70;;;1.90;30.40;;;;;;5023356;28;20183;-67
2023/04/15 05:28:59;;;;;;;87.37;71.40;;;2.00;30.50;;;;;;5023359;28;20179;-68
2023/04/15 05:31:25;;;;;;;144.07;132.10;;;2.30;31.60;;;;;;5022374;28;20388;-69
2023/04/15 05:33:51;;;;;;;159.97;146.67;;;3.00;30.30;;;;;;5021596;28;20286;-70
2023/04/15 05:36:16;;;;;;;147.40;135.47;;;3.50;25.60;;;;;;5021003;28;20629;-70
2023/04/15 05:38:42;;;;;;;160.87;148.57;;;4.20;23.80;;;;;;5018894;28;20203;-70
2023/04/15 05:41:08;;;;;;;243.40;226.67;;;5.60;20.50;;;;;;5019093;28;20663;-68
2023/04/15 05:43:33;;;;;;;174.20;161.37;;;7.20;15.00;;;;;;5018913;28;20213;-67
2023/04/15 05:45:59;;;;;;;313.30;289.77;;;8.10;10.00;;;;;;5018947;28;20893;-70
2023/04/15 05:48:24;;;;;;;236.57;219.60;;;8.30;7.40;;;;;;5022774;28;20168;-67
2023/04/15 05:50:50;;;;;;;260.00;241.20;;;9.00;7.00;;;;;;5022483;28;20245;-69
2023/04/15 05:53:16;;;;;;;198.67;181.73;;;10.30;3.50;;;;;;5021392;28;20239;-69
2023/04/15 05:55:41;;;;;;;485.53;450.80;;;11.00;1.40;;;;;;5018562;28;20183;-69
2023/04/15 05:58:07;;;;;;;572.43;529.87;;;11.80;1.00;;;;;;5022687;28;20189;-68
2023/04/15 06:00:32;;;;;;;301.10;278.40;;;11.70;1.00;;;;;;5020231;28;20193;-68
2023/04/15 06:02:58;;;;;;;170.07;155.17;;;12.10;1.00;;;;;;5017312;28;20215;-69
2023/04/15 06:05:24;;;;;;;369.17;339.73;;;13.30;1.00;;;;;;5016916;28;20203;-71
2023/04/15 06:07:50;;;;;;;307.87;283.40;;;13.40;1.00;;;;;;5016252;28;20217;-68
2023/04/15 06:10:16;;;;;;;129.77;116.17;;;12.90;1.00;;;;;;5022560;28;20414;-71
2023/04/15 06:12:41;;;;;;;263.63;242.30;;;12.40;1.00;;;;;;5020794;28;20442;-69
2023/04/15 06:15:09;;;;;;;386.10;358.80;;;11.90;1.00;;;;;;5021221;28;20422;-70
2023/04/15 06:17:35;;;;;;;158.33;139.43;;;11.20;1.00;;;;;;5023728;28;20202;-69
2023/04/15 06:20:00;;;;;;;113.90;92.93;;;10.70;1.00;;;;;;5022134;28;20425;-70
2023/04/15 06:22:29;;;;;;;160.10;143.77;;;10.50;1.00;;;;;;5021493;28;20207;-70
2023/04/15 06:24:54;;;;;;;440.40;410.73;;;10.40;1.00;;;;;;5019805;28;20172;-69
2023/04/15 06:27:21;;;;;;;213.90;196.30;;;10.10;1.00;;;;;;5022312;28;20418;-68
2023/04/15 06:29:47;;;;;;;197.70;179.40;;;9.80;1.30;;;;;;5025700;28;20169;-68
2023/04/15 06:32:13;;;;;;;460.43;428.73;;;10.00;1.00;;;;;;5026512;28;20463;-68
2023/04/15 06:34:38;;;;;;;269.07;250.07;;;10.30;1.00;;;;;;5027402;28;20647;-68
2023/04/15 06:37:04;;;;;;;95.93;79.97;;;10.10;1.00;;;;;;5027471;28;20193;-68
2023/04/15 06:39:29;;;;;;;97.07;75.30;;;10.40;1.00;;;;;;5026738;28;20239;-68
2023/04/15 06:41:55;;;;;;;329.27;304.07;;;10.80;1.00;;;;;;5027776;28;20221;-69
2023/04/15 06:44:21;;;;;;;365.67;338.13;;;10.80;1.00;;;;;;5028084;28;20174;-69
2023/04/15 06:46:47;;;;;;;426.33;396.77;;;10.70;1.00;;;;;;5028265;28;20415;-68
2023/04/15 06:49:12;;;;;;;234.67;214.77;;;10.70;1.00;;;;;;5026708;28;20218;-68
2023/04/15 06:51:38;;;;;;;327.80;296.67;;;10.70;1.70;;;;;;5025109;28;20418;-69
2023/04/15 06:54:05;;;;;;;435.47;406.10;;;;;;;;;;5020972;28;20182;-68
2023/04/15 06:56:33;;;;;;;362.33;335.03;;;;;;;;;;5022113;28;20180;-68
2023/04/15 06:58:59;;;;;;;424.83;392.13;;;10.00;24.10;;;;;;5023723;28;20986;-68
2023/04/15 07:01:28;;;;;;;352.13;327.13;;;10.00;1.50;;;;;;5026159;28;20413;-68
2023/04/15 07:03:54;;;;;;;254.03;235.73;;;10.10;1.00;;;;;;5025489;28;20652;-68
2023/04/15 07:06:20;;;;;;;292.50;270.57;;;10.20;1.00;;;;;;5025049;28;20454;-69
2023/04/15 07:08:46;;;;;;;267.47;245.67;;;10.30;1.00;;;;;;5024953;28;20175;-69
2023/04/15 07:11:12;;;;;;;405.27;377.30;;;10.40;1.00;;;;;;5026949;28;20414;-69
2023/04/15 07:13:37;;;;;;;423.73;395.63;;;10.70;1.00;;;;;;5026221;28;20219;-69
2023/04/15 07:16:03;;;;;;;494.73;460.33;;;11.10;1.00;;;;;;5026512;28;20241;-69
2023/04/15 07:18:28;;;;;;;437.33;406.63;;;10.90;1.00;;;;;;5023829;28;20222;-68
2023/04/15 07:20:55;;;;;;;317.87;293.20;;;11.20;1.00;;;;;;5023944;28;20187;-69
2023/04/15 07:23:20;;;;;;;300.00;277.00;;;11.30;1.00;;;;;;5017258;28;20278;-68
2023/04/15 07:25:46;;;;;;;85.70;50.67;;;11.80;13.60;;;;;;5018561;28;20472;-69
2023/04/15 07:28:12;;;;;;;298.00;273.47;;;12.50;11.40;;;;;;5020916;28;20245;-68
2023/04/15 07:30:37;;;;;;;181.57;165.27;;;13.00;5.40;;;;;;5021943;28;20445;-69
2023/04/15 07:33:03;;;;;;;478.00;442.70;;;;;;;;;;5018616;28;20223;-69
2023/04/15 07:35:29;;;;;;;365.70;338.23;;;;;;;;;;5023055;28;20207;-69
2023/04/15 07:37:55;;;;;;;340.27;313.43;;;13.70;1.00;;;;;;5018500;28;20411;-69
2023/04/15 07:40:21;;;;;;;470.83;434.97;;;;;;;;;;5021090;28;20423;-69
2023/04/15 07:42:48;;;;;;;141.43;127.83;;;13.90;11.10;;;;;;5022490;28;20214;-69
2023/04/15 07:45:14;;;;;;;438.63;404.80;;;;;;;;;;5021144;28;20426;-68
2023/04/15 07:47:40;;;;;;;523.80;484.63;;;;;;;;;;5021410;28;20495;-68
2023/04/15 07:50:07;;;;;;;391.47;361.17;;;;;;;;;;5021949;28;20429;-68
2023/04/15 07:52:38;;;;;;;256.53;235.07;;;13.20;29.40;;;;;;5020395;28;20682;-69
2023/04/15 07:55:05;;;;;;;109.33;98.10;;;15.00;1.00;;;;;;5019704;28;20504;-69
2023/04/15 07:57:30;;;;;;;423.83;392.03;;;17.40;1.00;;;;;;5015820;28;20415;-69
2023/04/15 07:59:56;;;;;;;399.70;370.90;;;19.10;1.00;;;;;;5012828;28;20434;-69
2023/04/15 08:02:21;;;;;;;423.03;392.50;;;20.90;1.00;;;;;;5000990;28;20733;-69
2023/04/15 08:04:47;;;;;;;568.17;523.93;;;22.70;1.00;;;;;;4997430;28;20191;-68
2023/04/15 08:07:13;;;;;;;814.60;750.93;;;24.70;1.00;;;;;;4998764;28;20180;-70
2023/04/15 08:09:38;;;;;;;629.63;580.30;;;25.90;1.00;;;;;;4995607;28;20184;-71
2023/04/15 08:12:04;;;;;;;611.33;562.93;;;25.40;1.00;;;;;;5011983;28;20212;-70
2023/04/15 08:14:30;;;;;;;741.83;684.10;;;26.10;1.00;;;;;;5013142;28;20631;-70
2023/04/15 08:16:56;;;;;;;687.10;633.70;;;;;;;;;;5006077;28;20430;-70
2023/04/15 08:19:21;;;;;;;647.07;597.63;;;25.10;1.00;;;;;;5012339;28;20194;-70
2023/04/15 08:21:47;;;;;;;604.73;558.43;;;23.10;1.00;;;;;;5005649;28;20879;-70
2023/04/15 08:24:13;;;;;;;626.77;576.73;;;22.00;1.00;;;;;;4996526;28;20215;-70
2023/04/15 08:26:38;;;;;;;549.00;508.53;;;21.10;1.00;;;;;;4999890;28;20176;-71
2023/04/15 08:29:04;;;;;;;608.67;563.13;;;20.30;1.00;;;;;;4997418;28;20424;-70
2023/04/15 08:31:30;;;;;;;774.60;714.97;;;19.40;2.10;;;;;;4999159;28;20173;-70
2023/04/15 08:33:57;;;;;;;647.43;599.87;;;;;;;;;;4998764;28;20558;-70
2023/04/15 08:36:22;;;;;;;517.47;479.53;;;;;;;;;;5007407;28;20186;-70
2023/04/15 08:38:48;;;;;;;735.77;678.63;;;;;;;;;;5018652;28;20419;-70
2023/04/15 08:41:25;;;;;;;764.10;702.80;;;;;;;;;;5018764;28;20450;-70
2023/04/15 08:43:57;;;;;;;610.07;566.20;;;;;;;;;;5018340;28;20879;-71
2023/04/15 08:46:23;;;;;;;325.33;300.17;;;;;;;;;;5017984;28;20472;-71
2023/04/15 08:48:49;;;;;;;658.43;609.10;;;;;;;;;;5019635;28;20415;-71
2023/04/15 08:51:16;;;;;;;322.63;299.20;;;;;;;;;;5018522;28;20457;-71
2023/04/15 08:53:45;;;;;;;644.03;592.70;;;;;;;;;;5018587;28;20445;-70
2023/04/15 08:56:12;;;;;;;598.07;556.43;;;;;;;;;;5013086;28;20423;-70
2023/04/15 08:58:37;;;;;;;618.00;572.93;;;19.40;2.50;;;;;;5017856;28;20553;-70
2023/04/15 09:01:03;;;;;;;759.60;704.10;;;;;;;;;;5018525;28;20884;-70
2023/04/15 09:03:30;;;;;;;501.63;463.23;;;;;;;;;;5016856;28;20776;-70
2023/04/15 09:05:57;;;;;;;666.00;616.53;;;;;;;;;;5017268;28;20424;-69
2023/04/15 09:08:23;;;;;;;482.80;447.87;;;;;;;;;;5019706;28;20682;-71
2023/04/15 09:10:50;;;;;;;604.57;559.13;;;16.20;16.10;;;;;;5019748;28;20457;-71
2023/04/15 09:13:15;;;;;;;751.37;696.07;;;15.70;1.00;;;;;;5018966;28;20446;-71
2023/04/15 09:15:41;;;;;;;501.27;466.47;;;15.70;1.00;;;;;;5019181;28;20426;-70
2023/04/15 09:18:10;;;;;;;661.80;610.43;;;15.60;1.00;;;;;;5018111;28;20617;-70
2023/04/15 09:20:43;;;;;;;442.47;407.67;;;16.00;1.00;;;;;;5019061;28;20423;-70
2023/04/15 09:23:13;;;;;;;295.97;272.77;;;15.90;1.00;;;;;;5017951;28;20525;-70
2023/04/15 09:25:43;;;;;;;271.90;250.10;;;15.90;1.00;;;;;;5017793;28;20908;-70
2023/04/15 09:28:09;;;;;;;361.27;334.30;;;15.70;1.00;;;;;;5004953;28;20423;-70
2023/04/15 09:30:35;;;;;;;561.53;521.37;;;15.60;1.00;;;;;;5003257;28;20434;-70
2023/04/15 09:33:03;;;;;;;384.23;356.07;;;15.90;1.00;;;;;;5017083;28;20471;-69
2023/04/15 09:35:29;;;;;;;530.47;490.90;;;16.30;1.00;;;;;;5019294;28;20411;-70
2023/04/15 09:38:06;;;;;;;191.23;173.13;;;16.30;1.00;;;;;;5021045;28;20454;-69
2023/04/15 09:40:36;;;;;;;183.97;167.40;;;16.70;1.00;;;;;;5020023;28;20533;-69
2023/04/15 09:43:04;;;;;;;401.23;373.20;;;16.80;1.00;;;;;;5012602;28;20482;-69
2023/04/15 09:45:30;;;;;;;250.43;228.50;;;16.50;1.00;;;;;;5015138;28;20423;-69
2023/04/15 09:48:16;;;;;;;599.93;559.33;;;16.20;1.00;;;;;;5018325;28;20434;-69
2023/04/15 09:50:43;;;;;;;470.00;436.90;;;15.80;1.00;;;;;;5011930;28;20439;-69
2023/04/15 09:53:10;;;;;;;552.87;514.40;;;15.50;1.00;;;;;;5015085;28;20451;-69
2023/04/15 09:55:36;;;;;;;549.13;510.63;;;15.40;1.00;;;;;;5019520;28;20500;-69
2023/04/15 09:58:07;;;;;;;395.50;368.80;;;15.60;1.00;;;;;;5021500;28;20423;-70
2023/04/15 10:00:32;;;;;;;523.33;484.53;;;15.70;1.00;;;;;;5022973;28;20179;-69
2023/04/15 10:02:58;;;;;;;653.17;604.87;;;15.90;1.00;;;;;;5023542;28;20803;-69
2023/04/15 10:05:24;;;;;;;352.10;323.53;;;16.00;1.00;;;;;;5026527;28;20183;-69
2023/04/15 10:07:50;;;;;;;248.60;227.90;;;15.90;1.00;;;;;;5026413;28;20180;-68
2023/04/15 10:10:16;;;;;;;507.47;471.03;;;16.00;1.00;;;;;;5021242;28;20439;-69
2023/04/15 10:12:43;;;;;;;665.77;618.33;;;16.20;1.00;;;;;;5020020;28;20454;-69
2023/04/15 10:15:18;;;;;;;696.00;644.97;;;16.50;1.00;;;;;;5026351;28;20423;-70
2023/04/15 10:17:44;;;;;;;719.37;668.00;;;16.40;1.00;;;;;;5024241;28;20440;-69
2023/04/15 10:20:11;;;;;;;515.87;477.57;;;;;;;;;;5019910;28;20435;-69
2023/04/15 10:22:37;;;;;;;639.77;591.27;;;16.20;1.00;;;;;;5024858;28;20552;-69
2023/04/15 10:25:05;;;;;;;193.07;177.07;;;16.50;1.00;;;;;;5024300;28;20430;-69
2023/04/15 10:27:31;;;;;;;602.13;556.07;;;17.00;1.00;;;;;;5026286;28;20415;-69
2023/04/15 10:29:59;;;;;;;631.03;584.67;;;17.30;1.00;;;;;;5025601;28;20427;-69
2023/04/15 10:32:26;;;;;;;730.30;674.27;;;16.70;1.00;;;;;;5045725;23;20509;-71
2023/04/15 10:34:53;;;;;;;553.20;507.87;;;17.00;1.00;;;;;;5015527;28;20427;-72
2023/04/15 10:37:31;;;;;;;521.57;480.37;;;17.60;1.00;;;;;;5015620;28;20778;-70
2023/04/15 10:39:57;;;;;;;550.47;511.33;;;18.00;1.00;;;;;;5015582;28;20426;-70
2023/04/15 10:42:22;;;;;;;414.63;385.70;;;18.00;1.00;;;;;;5004337;28;20440;-70
2023/04/15 10:44:50;;;;;;;216.57;197.70;;;;;;;;;;4995836;28;20188;-70
2023/04/15 10:47:18;;;;;;;667.73;620.27;;;17.50;1.00;;;;;;4999055;28;20176;-70
2023/04/15 10:49:55;;;;;;;429.70;399.33;;;16.00;1.00;;;;;;5004234;28;20420;-70
2023/04/15 10:52:26;;;;;;;503.80;470.60;;;16.00;1.00;;;;;;5003852;28;20458;-71
2023/04/15 10:55:17;;;;;;;531.07;492.80;;;15.50;1.00;;;;;;5012347;28;20433;-70
2023/04/15 10:57:43;;;;;;;394.33;365.33;;;14.70;1.00;;;;;;4995896;28;20458;-70
2023/04/15 11:00:16;;;;;;;440.50;410.03;;;14.40;1.00;;;;;;4995434;28;20865;-70
2023/04/15 11:03:07;;;;;;;336.37;313.80;;;14.10;1.00;;;;;;4995374;28;20436;-71
2023/04/15 11:05:41;;;;;;;448.67;416.27;;;13.90;1.00;;;;;;5001034;28;20433;-71
2023/04/15 11:08:08;;;;;;;580.90;539.23;;;13.80;3.30;;;;;;5015141;28;20422;-71
2023/04/15 11:10:33;;;;;;;567.63;528.27;;;13.90;6.40;;;;;;5014944;28;20426;-71
2023/04/15 11:13:03;;;;;;;518.07;481.33;;;13.60;1.00;;;;;;5014619;28;20464;-71
2023/04/15 11:15:33;;;;;;;422.93;393.60;;;13.90;1.00;;;;;;5014654;28;20171;-71
2023/04/15 11:18:21;;;;;;;462.53;428.77;;;14.20;1.00;;;;;;4997234;28;20478;-71
2023/04/15 11:20:58;;;;;;;311.87;290.10;;;14.10;1.00;;;;;;4993608;28;20982;-71
2023/04/15 11:23:33;;;;;;;573.57;534.40;;;14.20;1.00;;;;;;4994866;28;20493;-71
2023/04/15 11:26:01;;;;;;;442.93;411.53;;;14.50;1.00;;;;;;4995449;28;20728;-71
2023/04/15 11:28:28;;;;;;;379.70;352.60;;;15.00;1.00;;;;;;4994920;28;20454;-68
2023/04/15 11:30:54;;;;;;;481.67;449.43;;;15.40;1.00;;;;;;5010602;28;20450;-69
2023/04/15 11:33:21;;;;;;;117.17;106.03;;;15.30;1.00;;;;;;5013846;28;20478;-68
2023/04/15 11:35:47;;;;;;;443.07;410.63;;;15.80;1.00;;;;;;5014900;28;20915;-68
2023/04/15 11:38:14;;;;;;;594.30;554.97;;;16.20;1.00;;;;;;4996741;28;20411;-68
2023/04/15 11:40:40;;;;;;;231.87;213.50;;;16.50;1.00;;;;;;5014608;28;20464;-68
2023/04/15 11:43:13;;;;;;;593.20;548.23;;;16.50;1.00;;;;;;5013677;28;20795;-68
2023/04/15 11:45:59;;;;;;;474.97;438.47;;;16.10;1.00;;;;;;5014345;28;20720;-70
2023/04/15 11:48:30;;;;;;;245.93;226.60;;;15.70;1.00;;;;;;5013823;28;20426;-71
2023/04/15 11:50:56;;;;;;;475.10;442.43;;;15.60;1.00;;;;;;5014153;28;20426;-73
2023/04/15 11:53:23;;;;;;;404.17;375.93;;;15.80;1.00;;;;;;5013799;28;20983;-70
2023/04/15 11:55:52;;;;;;;585.00;542.70;;;15.90;1.00;;;;;;5014283;28;20430;-71
2023/04/15 11:58:23;;;;;;;504.27;466.23;;;15.90;1.00;;;;;;5013892;28;20588;-71
2023/04/15 12:00:54;;;;;;;544.50;507.03;;;16.40;1.00;;;;;;5014089;28;20438;-71
2023/04/15 12:03:27;;;;;;;580.60;537.37;;;16.40;1.00;;;;;;5013645;28;20427;-72
2023/04/15 12:06:20;;;;;;;595.50;554.90;;;16.40;1.00;;;;;;5013700;28;20430;-72
2023/04/15 12:08:49;;;;;;;357.93;329.53;;;16.20;1.00;;;;;;5013674;28;20785;-71
2023/04/15 12:11:16;;;;;;;510.60;476.33;;;15.50;1.00;;;;;;5013758;28;20804;-70
2023/04/15 12:13:49;;;;;;;542.97;508.17;;;15.40;1.00;;;;;;5013422;28;20990;-72
2023/04/15 12:16:18;;;;;;;489.57;454.80;;;15.40;1.00;;;;;;5013926;28;20481;-72
2023/04/15 12:18:46;;;;;;;437.27;404.07;;;15.60;1.00;;;;;;5013249;28;20512;-71
2023/04/15 12:21:12;;;;;;;535.07;496.00;;;15.70;1.00;;;;;;5013320;28;20782;-71
2023/04/15 12:23:46;;;;;;;481.27;446.27;;;15.80;1.00;;;;;;5009294;28;20596;-71
2023/04/15 12:26:11;;;;;;;393.57;363.70;;;16.00;1.00;;;;;;5013256;28;20408;-71
2023/04/15 12:28:40;;;;;;;475.20;441.77;;;15.80;1.00;;;;;;5012832;28;20445;-70
2023/04/15 12:31:07;;;;;;;549.07;510.57;;;15.50;1.00;;;;;;5012965;28;20680;-71
2023/04/15 12:33:33;;;;;;;728.10;676.17;;;15.80;1.00;;;;;;5012205;28;20478;-71
2023/04/15 12:35:59;;;;;;;169.13;153.87;;;15.80;1.00;;;;;;5012759;28;20418;-71
2023/04/15 12:38:24;;;;;;;356.03;329.97;;;15.90;1.00;;;;;;5012965;28;20974;-71
2023/04/15 12:40:50;;;;;;;346.93;320.90;;;16.10;1.00;;;;;;5012826;28;20254;-71
2023/04/15 12:43:16;;;;;;;556.93;516.60;;;15.90;1.00;;;;;;5012352;28;20204;-71
2023/04/15 12:45:41;;;;;;;558.47;518.07;;;16.20;1.00;;;;;;5012957;28;20279;-71
2023/04/15 12:48:08;;;;;;;488.97;453.27;;;15.80;1.00;;;;;;5012693;28;20187;-72
2023/04/15 12:50:34;;;;;;;650.30;603.10;;;15.60;1.00;;;;;;5005542;28;20215;-75